Aviation Digital Data Service (ADDS)

Output produced by METARs form (1904 UTC 29 May 2017)
found at http://www.aviationweather.gov/adds/metars/
 
GLRB 291900Z 00000KT 9999 SCT016 SCT100 29/25 Q1012 NOSIG
TAF GLRB 291000Z 2912/3018 24012KT 9999 BKN020 
     TEMPO 2913/2917 27010KT 7000 RA/TSRA SCT004 BKN017 FEW027CB 
     TEMPO 2918/2923 23012KT 9999 BKN015 FEW025CB